sensor_id;sensor_type;location;lat;lon;timestamp;temperature;humidity
3348;DHT22;1687;49.540;8.574;2024-02-21T00:02:11;10.20;78.70
3348;DHT22;1687;49.540;8.574;2024-02-21T00:04:36;10.20;78.30
3348;DHT22;1687;49.540;8.574;2024-02-21T00:07:04;10.20;78.40
3348;DHT22;1687;49.540;8.574;2024-02-21T00:09:30;10.20;78.80
3348;DHT22;1687;49.540;8.574;2024-02-21T00:11:56;10.20;78.80
3348;DHT22;1687;49.540;8.574;2024-02-21T00:14:21;10.20;78.80
3348;DHT22;1687;49.540;8.574;2024-02-21T00:16:47;10.30;79.10
3348;DHT22;1687;49.540;8.574;2024-02-21T00:19:13;10.30;79.10
3348;DHT22;1687;49.540;8.574;2024-02-21T00:21:40;10.40;79.20
3348;DHT22;1687;49.540;8.574;2024-02-21T00:24:06;10.40;79.10
3348;DHT22;1687;49.540;8.574;2024-02-21T00:26:32;10.40;79.20
3348;DHT22;1687;49.540;8.574;2024-02-21T00:28:57;10.40;79.40
3348;DHT22;1687;49.540;8.574;2024-02-21T00:31:23;10.40;79.20
3348;DHT22;1687;49.540;8.574;2024-02-21T00:33:49;10.40;79.40
3348;DHT22;1687;49.540;8.574;2024-02-21T00:36:15;10.50;79.50
3348;DHT22;1687;49.540;8.574;2024-02-21T00:38:41;10.40;79.30
3348;DHT22;1687;49.540;8.574;2024-02-21T00:41:07;10.40;79.40
3348;DHT22;1687;49.540;8.574;2024-02-21T00:43:33;10.30;79.40
3348;DHT22;1687;49.540;8.574;2024-02-21T00:45:58;10.30;79.40
3348;DHT22;1687;49.540;8.574;2024-02-21T00:48:24;10.30;79.40
3348;DHT22;1687;49.540;8.574;2024-02-21T00:50:50;10.20;79.20
3348;DHT22;1687;49.540;8.574;2024-02-21T00:53:16;10.10;79.50
3348;DHT22;1687;49.540;8.574;2024-02-21T00:55:41;10.10;79.60
3348;DHT22;1687;49.540;8.574;2024-02-21T00:58:08;10.10;79.80
3348;DHT22;1687;49.540;8.574;2024-02-21T01:00:34;10.10;79.90
3348;DHT22;1687;49.540;8.574;2024-02-21T01:03:00;10.10;80.00
3348;DHT22;1687;49.540;8.574;2024-02-21T01:05:25;10.10;80.10
3348;DHT22;1687;49.540;8.574;2024-02-21T01:07:52;10.00;79.90
3348;DHT22;1687;49.540;8.574;2024-02-21T01:10:18;10.10;80.40
3348;DHT22;1687;49.540;8.574;2024-02-21T01:12:44;10.00;80.00
3348;DHT22;1687;49.540;8.574;2024-02-21T01:15:09;10.00;80.20
3348;DHT22;1687;49.540;8.574;2024-02-21T01:17:35;10.00;80.30
3348;DHT22;1687;49.540;8.574;2024-02-21T01:20:02;9.90;81.50
3348;DHT22;1687;49.540;8.574;2024-02-21T01:22:28;9.90;81.70
3348;DHT22;1687;49.540;8.574;2024-02-21T01:24:54;9.80;81.20
3348;DHT22;1687;49.540;8.574;2024-02-21T01:27:19;9.80;81.60
3348;DHT22;1687;49.540;8.574;2024-02-21T01:29:46;9.80;81.80
3348;DHT22;1687;49.540;8.574;2024-02-21T01:32:13;9.80;82.00
3348;DHT22;1687;49.540;8.574;2024-02-21T01:34:38;9.80;82.20
3348;DHT22;1687;49.540;8.574;2024-02-21T01:37:04;9.80;82.30
3348;DHT22;1687;49.540;8.574;2024-02-21T01:39:32;9.80;82.00
3348;DHT22;1687;49.540;8.574;2024-02-21T01:41:58;9.80;82.10
3348;DHT22;1687;49.540;8.574;2024-02-21T01:44:24;9.70;82.00
3348;DHT22;1687;49.540;8.574;2024-02-21T01:46:50;9.70;82.30
3348;DHT22;1687;49.540;8.574;2024-02-21T01:49:17;9.70;82.50
3348;DHT22;1687;49.540;8.574;2024-02-21T01:51:44;9.70;82.60
3348;DHT22;1687;49.540;8.574;2024-02-21T01:54:10;9.80;82.90
3348;DHT22;1687;49.540;8.574;2024-02-21T01:56:36;9.80;82.90
3348;DHT22;1687;49.540;8.574;2024-02-21T01:59:02;9.80;82.60
3348;DHT22;1687;49.540;8.574;2024-02-21T02:01:29;9.70;82.80
3348;DHT22;1687;49.540;8.574;2024-02-21T02:03:55;9.70;83.10
3348;DHT22;1687;49.540;8.574;2024-02-21T02:06:21;9.70;83.20
3348;DHT22;1687;49.540;8.574;2024-02-21T02:08:46;9.70;83.40
3348;DHT22;1687;49.540;8.574;2024-02-21T02:11:15;9.70;83.50
3348;DHT22;1687;49.540;8.574;2024-02-21T02:13:41;9.70;83.70
3348;DHT22;1687;49.540;8.574;2024-02-21T02:16:07;9.80;84.00
3348;DHT22;1687;49.540;8.574;2024-02-21T02:18:33;9.80;84.00
3348;DHT22;1687;49.540;8.574;2024-02-21T02:20:58;9.80;84.10
3348;DHT22;1687;49.540;8.574;2024-02-21T02:23:31;9.80;84.30
3348;DHT22;1687;49.540;8.574;2024-02-21T02:25:57;9.80;84.30
3348;DHT22;1687;49.540;8.574;2024-02-21T02:28:24;9.80;84.30
3348;DHT22;1687;49.540;8.574;2024-02-21T02:30:50;9.70;84.90
3348;DHT22;1687;49.540;8.574;2024-02-21T02:33:16;9.70;84.40
3348;DHT22;1687;49.540;8.574;2024-02-21T02:35:43;9.70;84.70
3348;DHT22;1687;49.540;8.574;2024-02-21T02:38:08;9.80;84.90
3348;DHT22;1687;49.540;8.574;2024-02-21T02:40:35;9.70;84.70
3348;DHT22;1687;49.540;8.574;2024-02-21T02:43:01;9.70;84.70
3348;DHT22;1687;49.540;8.574;2024-02-21T02:45:27;9.70;85.00
3348;DHT22;1687;49.540;8.574;2024-02-21T02:47:53;9.60;85.20
3348;DHT22;1687;49.540;8.574;2024-02-21T02:50:19;9.60;85.10
3348;DHT22;1687;49.540;8.574;2024-02-21T02:52:45;9.50;85.10
3348;DHT22;1687;49.540;8.574;2024-02-21T02:55:11;9.50;85.60
3348;DHT22;1687;49.540;8.574;2024-02-21T02:57:37;9.50;85.70
3348;DHT22;1687;49.540;8.574;2024-02-21T03:00:03;9.40;85.50
3348;DHT22;1687;49.540;8.574;2024-02-21T03:02:29;9.30;85.50
3348;DHT22;1687;49.540;8.574;2024-02-21T03:04:56;9.40;86.20
3348;DHT22;1687;49.540;8.574;2024-02-21T03:07:25;9.30;86.10
3348;DHT22;1687;49.540;8.574;2024-02-21T03:09:51;9.30;86.50
3348;DHT22;1687;49.540;8.574;2024-02-21T03:12:17;9.30;86.90
3348;DHT22;1687;49.540;8.574;2024-02-21T03:14:53;9.40;87.20
3348;DHT22;1687;49.540;8.574;2024-02-21T03:17:19;9.40;87.40
3348;DHT22;1687;49.540;8.574;2024-02-21T03:19:44;9.40;87.50
3348;DHT22;1687;49.540;8.574;2024-02-21T03:22:10;9.40;87.70
3348;DHT22;1687;49.540;8.574;2024-02-21T03:24:36;9.40;87.80
3348;DHT22;1687;49.540;8.574;2024-02-21T03:27:01;9.40;87.50
3348;DHT22;1687;49.540;8.574;2024-02-21T03:29:27;9.30;87.60
3348;DHT22;1687;49.540;8.574;2024-02-21T03:31:53;9.30;88.00
3348;DHT22;1687;49.540;8.574;2024-02-21T03:34:19;9.30;88.30
3348;DHT22;1687;49.540;8.574;2024-02-21T03:36:44;9.30;88.40
3348;DHT22;1687;49.540;8.574;2024-02-21T03:39:10;9.30;88.70
3348;DHT22;1687;49.540;8.574;2024-02-21T03:41:36;9.20;88.40
3348;DHT22;1687;49.540;8.574;2024-02-21T03:44:01;9.20;88.80
3348;DHT22;1687;49.540;8.574;2024-02-21T03:46:27;9.20;89.20
3348;DHT22;1687;49.540;8.574;2024-02-21T03:48:53;9.10;89.10
3348;DHT22;1687;49.540;8.574;2024-02-21T03:51:19;9.10;89.30
3348;DHT22;1687;49.540;8.574;2024-02-21T03:53:45;9.10;89.40
3348;DHT22;1687;49.540;8.574;2024-02-21T03:56:10;9.10;89.90
3348;DHT22;1687;49.540;8.574;2024-02-21T03:58:36;9.10;90.10
3348;DHT22;1687;49.540;8.574;2024-02-21T04:01:02;9.20;90.20
3348;DHT22;1687;49.540;8.574;2024-02-21T04:03:29;9.30;90.40
3348;DHT22;1687;49.540;8.574;2024-02-21T04:05:55;9.40;90.50
3348;DHT22;1687;49.540;8.574;2024-02-21T04:08:22;9.50;90.50
3348;DHT22;1687;49.540;8.574;2024-02-21T04:10:48;9.50;90.60
3348;DHT22;1687;49.540;8.574;2024-02-21T04:13:13;9.50;90.40
3348;DHT22;1687;49.540;8.574;2024-02-21T04:15:39;9.60;90.70
3348;DHT22;1687;49.540;8.574;2024-02-21T04:18:05;9.60;90.80
3348;DHT22;1687;49.540;8.574;2024-02-21T04:20:31;9.60;90.90
3348;DHT22;1687;49.540;8.574;2024-02-21T04:22:57;9.70;91.00
3348;DHT22;1687;49.540;8.574;2024-02-21T04:25:23;9.70;90.90
3348;DHT22;1687;49.540;8.574;2024-02-21T04:27:49;9.70;91.10
3348;DHT22;1687;49.540;8.574;2024-02-21T04:30:15;9.70;91.10
3348;DHT22;1687;49.540;8.574;2024-02-21T04:32:41;9.70;91.10
3348;DHT22;1687;49.540;8.574;2024-02-21T04:35:07;9.70;91.10
3348;DHT22;1687;49.540;8.574;2024-02-21T04:37:33;9.60;90.90
3348;DHT22;1687;49.540;8.574;2024-02-21T04:39:59;9.60;91.30
3348;DHT22;1687;49.540;8.574;2024-02-21T04:42:25;9.60;91.30
3348;DHT22;1687;49.540;8.574;2024-02-21T04:44:51;9.60;91.10
3348;DHT22;1687;49.540;8.574;2024-02-21T04:47:17;9.50;91.30
3348;DHT22;1687;49.540;8.574;2024-02-21T04:49:44;9.50;91.20
3348;DHT22;1687;49.540;8.574;2024-02-21T04:52:09;9.50;91.40
3348;DHT22;1687;49.540;8.574;2024-02-21T04:54:35;9.50;91.60
3348;DHT22;1687;49.540;8.574;2024-02-21T04:57:01;9.50;91.70
3348;DHT22;1687;49.540;8.574;2024-02-21T04:59:26;9.50;91.70
3348;DHT22;1687;49.540;8.574;2024-02-21T05:01:52;9.50;91.60
3348;DHT22;1687;49.540;8.574;2024-02-21T05:04:18;9.50;91.50
3348;DHT22;1687;49.540;8.574;2024-02-21T05:06:44;9.40;91.40
3348;DHT22;1687;49.540;8.574;2024-02-21T05:09:10;9.40;91.70
3348;DHT22;1687;49.540;8.574;2024-02-21T05:11:36;9.40;91.70
3348;DHT22;1687;49.540;8.574;2024-02-21T05:14:03;9.30;91.60
3348;DHT22;1687;49.540;8.574;2024-02-21T05:16:29;9.30;91.60
3348;DHT22;1687;49.540;8.574;2024-02-21T05:18:55;9.30;92.00
3348;DHT22;1687;49.540;8.574;2024-02-21T05:21:23;9.30;91.70
3348;DHT22;1687;49.540;8.574;2024-02-21T05:23:50;9.30;92.10
3348;DHT22;1687;49.540;8.574;2024-02-21T05:26:22;9.40;92.30
3348;DHT22;1687;49.540;8.574;2024-02-21T05:28:52;9.40;92.10
3348;DHT22;1687;49.540;8.574;2024-02-21T05:31:19;9.50;92.20
3348;DHT22;1687;49.540;8.574;2024-02-21T05:33:45;9.40;92.00
3348;DHT22;1687;49.540;8.574;2024-02-21T05:36:12;9.40;92.00
3348;DHT22;1687;49.540;8.574;2024-02-21T05:38:38;9.30;91.90
3348;DHT22;1687;49.540;8.574;2024-02-21T05:41:04;9.30;91.90
3348;DHT22;1687;49.540;8.574;2024-02-21T05:43:30;9.30;92.30
3348;DHT22;1687;49.540;8.574;2024-02-21T05:45:56;9.30;92.40
3348;DHT22;1687;49.540;8.574;2024-02-21T05:48:22;9.30;92.50
3348;DHT22;1687;49.540;8.574;2024-02-21T05:50:48;9.30;92.30
3348;DHT22;1687;49.540;8.574;2024-02-21T05:53:14;9.30;92.20
3348;DHT22;1687;49.540;8.574;2024-02-21T05:55:40;9.30;92.10
3348;DHT22;1687;49.540;8.574;2024-02-21T05:58:07;9.20;92.20
3348;DHT22;1687;49.540;8.574;2024-02-21T06:00:33;9.20;92.50
3348;DHT22;1687;49.540;8.574;2024-02-21T06:02:58;9.20;92.30
3348;DHT22;1687;49.540;8.574;2024-02-21T06:05:24;9.10;92.20
3348;DHT22;1687;49.540;8.574;2024-02-21T06:07:50;9.10;92.40
3348;DHT22;1687;49.540;8.574;2024-02-21T06:10:16;9.00;92.20
3348;DHT22;1687;49.540;8.574;2024-02-21T06:12:41;8.90;92.30
3348;DHT22;1687;49.540;8.574;2024-02-21T06:15:07;8.80;92.10
3348;DHT22;1687;49.540;8.574;2024-02-21T06:17:33;8.70;91.90
3348;DHT22;1687;49.540;8.574;2024-02-21T06:19:59;8.60;91.90
3348;DHT22;1687;49.540;8.574;2024-02-21T06:22:25;8.50;92.10
3348;DHT22;1687;49.540;8.574;2024-02-21T06:24:50;8.50;92.20
3348;DHT22;1687;49.540;8.574;2024-02-21T06:27:16;8.50;92.80
3348;DHT22;1687;49.540;8.574;2024-02-21T06:29:42;8.50;92.80
3348;DHT22;1687;49.540;8.574;2024-02-21T06:32:08;8.50;92.80
3348;DHT22;1687;49.540;8.574;2024-02-21T06:34:34;8.50;92.90
3348;DHT22;1687;49.540;8.574;2024-02-21T06:37:00;8.50;92.50
3348;DHT22;1687;49.540;8.574;2024-02-21T06:39:25;8.40;92.80
3348;DHT22;1687;49.540;8.574;2024-02-21T06:41:51;8.40;92.80
3348;DHT22;1687;49.540;8.574;2024-02-21T06:44:19;8.40;93.00
3348;DHT22;1687;49.540;8.574;2024-02-21T06:46:45;8.40;92.90
3348;DHT22;1687;49.540;8.574;2024-02-21T06:49:10;8.40;93.00
3348;DHT22;1687;49.540;8.574;2024-02-21T06:51:42;8.30;92.60
3348;DHT22;1687;49.540;8.574;2024-02-21T06:54:08;8.20;92.90
3348;DHT22;1687;49.540;8.574;2024-02-21T06:56:35;8.20;92.80
3348;DHT22;1687;49.540;8.574;2024-02-21T06:59:01;8.20;93.10
3348;DHT22;1687;49.540;8.574;2024-02-21T07:01:29;8.20;93.20
3348;DHT22;1687;49.540;8.574;2024-02-21T07:03:55;8.20;93.30
3348;DHT22;1687;49.540;8.574;2024-02-21T07:06:21;8.20;93.20
3348;DHT22;1687;49.540;8.574;2024-02-21T07:08:47;8.30;93.60
3348;DHT22;1687;49.540;8.574;2024-02-21T07:11:13;8.30;93.30
3348;DHT22;1687;49.540;8.574;2024-02-21T07:13:38;8.30;93.40
3348;DHT22;1687;49.540;8.574;2024-02-21T07:16:05;8.30;93.20
3348;DHT22;1687;49.540;8.574;2024-02-21T07:18:31;8.30;93.50
3348;DHT22;1687;49.540;8.574;2024-02-21T07:20:57;8.30;93.40
3348;DHT22;1687;49.540;8.574;2024-02-21T07:23:23;8.30;93.40
3348;DHT22;1687;49.540;8.574;2024-02-21T07:25:49;8.40;93.90
3348;DHT22;1687;49.540;8.574;2024-02-21T07:28:15;8.50;94.10
3348;DHT22;1687;49.540;8.574;2024-02-21T07:30:41;8.50;93.50
3348;DHT22;1687;49.540;8.574;2024-02-21T07:33:07;8.50;93.60
3348;DHT22;1687;49.540;8.574;2024-02-21T07:35:33;8.50;93.80
3348;DHT22;1687;49.540;8.574;2024-02-21T07:37:59;8.50;93.50
3348;DHT22;1687;49.540;8.574;2024-02-21T07:40:24;8.50;93.60
3348;DHT22;1687;49.540;8.574;2024-02-21T07:42:50;8.50;94.20
3348;DHT22;1687;49.540;8.574;2024-02-21T07:45:16;8.60;93.70
3348;DHT22;1687;49.540;8.574;2024-02-21T07:47:41;8.60;93.60
3348;DHT22;1687;49.540;8.574;2024-02-21T07:50:08;8.60;94.00
3348;DHT22;1687;49.540;8.574;2024-02-21T07:52:34;8.60;93.50
3348;DHT22;1687;49.540;8.574;2024-02-21T07:54:59;8.60;93.70
3348;DHT22;1687;49.540;8.574;2024-02-21T07:57:25;8.60;93.70
3348;DHT22;1687;49.540;8.574;2024-02-21T07:59:51;8.60;94.00
3348;DHT22;1687;49.540;8.574;2024-02-21T08:02:17;8.70;94.40
3348;DHT22;1687;49.540;8.574;2024-02-21T08:04:42;8.80;93.90
3348;DHT22;1687;49.540;8.574;2024-02-21T08:07:09;8.80;94.30
3348;DHT22;1687;49.540;8.574;2024-02-21T08:09:35;8.90;94.40
3348;DHT22;1687;49.540;8.574;2024-02-21T08:12:03;9.00;94.10
3348;DHT22;1687;49.540;8.574;2024-02-21T08:14:30;9.00;93.80
3348;DHT22;1687;49.540;8.574;2024-02-21T08:16:55;9.00;93.80
3348;DHT22;1687;49.540;8.574;2024-02-21T08:19:21;9.10;94.50
3348;DHT22;1687;49.540;8.574;2024-02-21T08:21:48;9.30;94.40
3348;DHT22;1687;49.540;8.574;2024-02-21T08:24:14;9.30;94.10
3348;DHT22;1687;49.540;8.574;2024-02-21T08:26:43;9.40;94.60
3348;DHT22;1687;49.540;8.574;2024-02-21T08:29:12;9.50;94.00
3348;DHT22;1687;49.540;8.574;2024-02-21T08:31:38;9.50;93.90
3348;DHT22;1687;49.540;8.574;2024-02-21T08:34:04;9.60;94.20
3348;DHT22;1687;49.540;8.574;2024-02-21T08:36:33;9.60;93.60
3348;DHT22;1687;49.540;8.574;2024-02-21T08:39:00;9.60;93.60
3348;DHT22;1687;49.540;8.574;2024-02-21T08:41:26;9.70;94.00
3348;DHT22;1687;49.540;8.574;2024-02-21T08:43:53;9.80;93.90
3348;DHT22;1687;49.540;8.574;2024-02-21T08:46:22;9.70;93.10
3348;DHT22;1687;49.540;8.574;2024-02-21T08:48:52;9.70;93.40
3348;DHT22;1687;49.540;8.574;2024-02-21T08:51:18;9.70;93.50
3348;DHT22;1687;49.540;8.574;2024-02-21T08:53:48;9.70;93.50
3348;DHT22;1687;49.540;8.574;2024-02-21T08:56:13;9.70;93.80
3348;DHT22;1687;49.540;8.574;2024-02-21T08:58:40;9.70;92.90
3348;DHT22;1687;49.540;8.574;2024-02-21T09:01:08;9.70;93.40
3348;DHT22;1687;49.540;8.574;2024-02-21T09:03:37;9.70;93.00
3348;DHT22;1687;49.540;8.574;2024-02-21T09:06:04;9.80;93.50
3348;DHT22;1687;49.540;8.574;2024-02-21T09:08:30;9.70;92.80
3348;DHT22;1687;49.540;8.574;2024-02-21T09:10:56;9.80;93.40
3348;DHT22;1687;49.540;8.574;2024-02-21T09:13:22;9.90;93.40
3348;DHT22;1687;49.540;8.574;2024-02-21T09:15:49;10.00;92.60
3348;DHT22;1687;49.540;8.574;2024-02-21T09:18:18;10.10;92.90
3348;DHT22;1687;49.540;8.574;2024-02-21T09:20:44;10.20;92.20
3348;DHT22;1687;49.540;8.574;2024-02-21T09:23:10;10.30;92.60
3348;DHT22;1687;49.540;8.574;2024-02-21T09:25:36;10.40;92.90
3348;DHT22;1687;49.540;8.574;2024-02-21T09:28:02;10.60;92.80
3348;DHT22;1687;49.540;8.574;2024-02-21T09:30:29;10.70;92.20
3348;DHT22;1687;49.540;8.574;2024-02-21T09:32:54;10.80;92.10
3348;DHT22;1687;49.540;8.574;2024-02-21T09:35:20;10.80;91.90
3348;DHT22;1687;49.540;8.574;2024-02-21T09:37:48;11.00;92.20
3348;DHT22;1687;49.540;8.574;2024-02-21T09:40:15;11.00;91.40
3348;DHT22;1687;49.540;8.574;2024-02-21T09:42:47;11.10;91.90
3348;DHT22;1687;49.540;8.574;2024-02-21T09:50:47;11.20;91.20
3348;DHT22;1687;49.540;8.574;2024-02-21T09:53:14;11.30;91.20
3348;DHT22;1687;49.540;8.574;2024-02-21T09:55:40;11.40;90.80
3348;DHT22;1687;49.540;8.574;2024-02-21T09:58:07;11.50;91.40
3348;DHT22;1687;49.540;8.574;2024-02-21T10:00:34;11.70;91.30
3348;DHT22;1687;49.540;8.574;2024-02-21T10:03:01;11.80;90.40
3348;DHT22;1687;49.540;8.574;2024-02-21T10:05:26;11.60;89.40
3348;DHT22;1687;49.540;8.574;2024-02-21T10:07:52;11.50;90.10
3348;DHT22;1687;49.540;8.574;2024-02-21T10:10:20;11.50;89.90
3348;DHT22;1687;49.540;8.574;2024-02-21T10:12:50;11.70;90.40
3348;DHT22;1687;49.540;8.574;2024-02-21T10:15:21;11.80;90.50
3348;DHT22;1687;49.540;8.574;2024-02-21T10:17:48;12.00;90.50
3348;DHT22;1687;49.540;8.574;2024-02-21T10:20:13;12.20;90.40
3348;DHT22;1687;49.540;8.574;2024-02-21T10:22:40;12.20;89.70
3348;DHT22;1687;49.540;8.574;2024-02-21T10:25:10;12.20;89.30
3348;DHT22;1687;49.540;8.574;2024-02-21T10:27:37;12.20;88.50
3348;DHT22;1687;49.540;8.574;2024-02-21T10:30:08;12.20;88.60
3348;DHT22;1687;49.540;8.574;2024-02-21T10:32:51;12.30;88.30
3348;DHT22;1687;49.540;8.574;2024-02-21T10:35:32;12.20;88.00
3348;DHT22;1687;49.540;8.574;2024-02-21T10:37:59;12.40;88.50
3348;DHT22;1687;49.540;8.574;2024-02-21T10:40:28;12.40;87.90
3348;DHT22;1687;49.540;8.574;2024-02-21T10:43:01;12.50;87.60
3348;DHT22;1687;49.540;8.574;2024-02-21T10:45:31;12.60;87.60
3348;DHT22;1687;49.540;8.574;2024-02-21T10:48:10;12.70;86.90
3348;DHT22;1687;49.540;8.574;2024-02-21T10:53:45;12.90;86.80
3348;DHT22;1687;49.540;8.574;2024-02-21T10:56:31;12.90;86.40
3348;DHT22;1687;49.540;8.574;2024-02-21T10:59:05;13.10;86.40
3348;DHT22;1687;49.540;8.574;2024-02-21T11:01:32;13.00;84.80
3348;DHT22;1687;49.540;8.574;2024-02-21T11:04:08;13.10;85.60
3348;DHT22;1687;49.540;8.574;2024-02-21T11:06:38;13.10;85.00
3348;DHT22;1687;49.540;8.574;2024-02-21T11:09:06;13.10;84.50
3348;DHT22;1687;49.540;8.574;2024-02-21T11:11:41;13.10;84.50
3348;DHT22;1687;49.540;8.574;2024-02-21T11:16:38;13.40;84.80
3348;DHT22;1687;49.540;8.574;2024-02-21T11:19:09;13.30;83.50
3348;DHT22;1687;49.540;8.574;2024-02-21T11:21:37;13.40;83.80
3348;DHT22;1687;49.540;8.574;2024-02-21T11:24:04;13.40;83.10
3348;DHT22;1687;49.540;8.574;2024-02-21T11:26:31;13.20;82.30
3348;DHT22;1687;49.540;8.574;2024-02-21T11:28:58;13.20;82.50
3348;DHT22;1687;49.540;8.574;2024-02-21T11:31:25;13.10;82.00
3348;DHT22;1687;49.540;8.574;2024-02-21T11:33:52;13.20;82.60
3348;DHT22;1687;49.540;8.574;2024-02-21T11:36:25;13.30;82.50
3348;DHT22;1687;49.540;8.574;2024-02-21T11:38:52;13.40;81.70
3348;DHT22;1687;49.540;8.574;2024-02-21T11:41:19;13.30;81.60
3348;DHT22;1687;49.540;8.574;2024-02-21T11:43:49;13.40;81.70
3348;DHT22;1687;49.540;8.574;2024-02-21T11:46:16;13.40;81.20
3348;DHT22;1687;49.540;8.574;2024-02-21T11:48:42;13.40;81.10
3348;DHT22;1687;49.540;8.574;2024-02-21T11:51:21;13.50;81.30
3348;DHT22;1687;49.540;8.574;2024-02-21T11:53:52;13.60;81.40
3348;DHT22;1687;49.540;8.574;2024-02-21T11:56:18;13.60;80.60
3348;DHT22;1687;49.540;8.574;2024-02-21T11:58:46;13.60;80.40
3348;DHT22;1687;49.540;8.574;2024-02-21T12:01:13;13.50;80.10
3348;DHT22;1687;49.540;8.574;2024-02-21T12:03:39;13.50;79.80
3348;DHT22;1687;49.540;8.574;2024-02-21T12:06:07;13.50;80.00
3348;DHT22;1687;49.540;8.574;2024-02-21T12:08:42;13.50;79.20
3348;DHT22;1687;49.540;8.574;2024-02-21T12:11:20;13.50;79.10
3348;DHT22;1687;49.540;8.574;2024-02-21T12:13:47;13.50;79.30
3348;DHT22;1687;49.540;8.574;2024-02-21T12:16:25;13.50;78.70
3348;DHT22;1687;49.540;8.574;2024-02-21T12:18:53;13.50;78.80
3348;DHT22;1687;49.540;8.574;2024-02-21T12:21:19;13.50;78.50
3348;DHT22;1687;49.540;8.574;2024-02-21T12:23:49;13.60;79.80
3348;DHT22;1687;49.540;8.574;2024-02-21T12:26:14;13.60;78.40
3348;DHT22;1687;49.540;8.574;2024-02-21T12:28:40;13.70;78.50
3348;DHT22;1687;49.540;8.574;2024-02-21T12:31:06;13.80;78.20
3348;DHT22;1687;49.540;8.574;2024-02-21T12:33:31;13.70;77.50
3348;DHT22;1687;49.540;8.574;2024-02-21T12:35:58;13.60;77.10
3348;DHT22;1687;49.540;8.574;2024-02-21T12:38:24;13.50;77.40
3348;DHT22;1687;49.540;8.574;2024-02-21T12:40:50;13.60;77.60
3348;DHT22;1687;49.540;8.574;2024-02-21T12:43:15;13.60;77.80
3348;DHT22;1687;49.540;8.574;2024-02-21T12:45:41;13.80;77.60
3348;DHT22;1687;49.540;8.574;2024-02-21T12:48:07;13.60;76.40
3348;DHT22;1687;49.540;8.574;2024-02-21T12:50:32;13.60;77.20
3348;DHT22;1687;49.540;8.574;2024-02-21T12:52:58;13.60;76.40
3348;DHT22;1687;49.540;8.574;2024-02-21T12:55:24;13.60;77.20
3348;DHT22;1687;49.540;8.574;2024-02-21T12:57:50;13.80;76.90
3348;DHT22;1687;49.540;8.574;2024-02-21T13:00:16;13.70;76.50
3348;DHT22;1687;49.540;8.574;2024-02-21T13:02:42;13.70;76.10
3348;DHT22;1687;49.540;8.574;2024-02-21T13:05:08;13.60;76.00
3348;DHT22;1687;49.540;8.574;2024-02-21T13:07:34;13.50;75.70
3348;DHT22;1687;49.540;8.574;2024-02-21T13:09:59;13.50;76.30
3348;DHT22;1687;49.540;8.574;2024-02-21T13:12:25;13.60;75.90
3348;DHT22;1687;49.540;8.574;2024-02-21T13:14:55;13.60;76.20
3348;DHT22;1687;49.540;8.574;2024-02-21T13:17:21;13.60;75.70
3348;DHT22;1687;49.540;8.574;2024-02-21T13:19:47;13.60;75.40
3348;DHT22;1687;49.540;8.574;2024-02-21T13:22:13;13.60;75.30
3348;DHT22;1687;49.540;8.574;2024-02-21T13:24:39;13.60;75.70
3348;DHT22;1687;49.540;8.574;2024-02-21T13:27:04;13.60;75.40
3348;DHT22;1687;49.540;8.574;2024-02-21T13:29:30;13.60;75.40
3348;DHT22;1687;49.540;8.574;2024-02-21T13:31:56;13.70;75.40
3348;DHT22;1687;49.540;8.574;2024-02-21T13:34:22;13.80;75.30
3348;DHT22;1687;49.540;8.574;2024-02-21T13:36:47;13.80;75.10
3348;DHT22;1687;49.540;8.574;2024-02-21T13:39:13;13.80;74.90
3348;DHT22;1687;49.540;8.574;2024-02-21T13:41:42;13.70;74.80
3348;DHT22;1687;49.540;8.574;2024-02-21T13:44:08;13.70;74.70
3348;DHT22;1687;49.540;8.574;2024-02-21T13:46:34;13.60;74.60
3348;DHT22;1687;49.540;8.574;2024-02-21T13:49:04;13.70;74.80
3348;DHT22;1687;49.540;8.574;2024-02-21T13:51:34;13.70;74.30
3348;DHT22;1687;49.540;8.574;2024-02-21T13:54:03;13.70;74.50
3348;DHT22;1687;49.540;8.574;2024-02-21T13:56:30;13.80;74.50
3348;DHT22;1687;49.540;8.574;2024-02-21T13:58:57;13.80;74.10
3348;DHT22;1687;49.540;8.574;2024-02-21T14:01:23;13.80;74.20
3348;DHT22;1687;49.540;8.574;2024-02-21T14:03:49;13.70;73.60
3348;DHT22;1687;49.540;8.574;2024-02-21T14:06:14;13.60;73.70
3348;DHT22;1687;49.540;8.574;2024-02-21T14:08:40;13.60;73.90
3348;DHT22;1687;49.540;8.574;2024-02-21T14:11:07;13.70;74.30
3348;DHT22;1687;49.540;8.574;2024-02-21T14:13:32;13.80;74.10
3348;DHT22;1687;49.540;8.574;2024-02-21T14:15:58;13.80;73.80
3348;DHT22;1687;49.540;8.574;2024-02-21T14:18:24;13.80;73.30
3348;DHT22;1687;49.540;8.574;2024-02-21T14:20:49;13.70;73.40
3348;DHT22;1687;49.540;8.574;2024-02-21T14:23:15;13.60;73.00
3348;DHT22;1687;49.540;8.574;2024-02-21T14:25:41;13.50;73.30
3348;DHT22;1687;49.540;8.574;2024-02-21T14:28:07;13.50;73.60
3348;DHT22;1687;49.540;8.574;2024-02-21T14:30:36;13.50;73.30
3348;DHT22;1687;49.540;8.574;2024-02-21T14:33:02;13.50;73.10
3348;DHT22;1687;49.540;8.574;2024-02-21T14:35:28;13.50;73.20
3348;DHT22;1687;49.540;8.574;2024-02-21T14:37:53;13.60;73.30
3348;DHT22;1687;49.540;8.574;2024-02-21T14:40:22;13.60;73.20
3348;DHT22;1687;49.540;8.574;2024-02-21T14:42:48;13.60;73.10
3348;DHT22;1687;49.540;8.574;2024-02-21T14:45:14;13.60;73.00
3348;DHT22;1687;49.540;8.574;2024-02-21T14:47:39;13.70;73.10
3348;DHT22;1687;49.540;8.574;2024-02-21T14:50:05;13.80;73.50
3348;DHT22;1687;49.540;8.574;2024-02-21T14:52:33;13.90;72.90
3348;DHT22;1687;49.540;8.574;2024-02-21T14:54:59;13.70;72.20
3348;DHT22;1687;49.540;8.574;2024-02-21T14:57:25;13.60;72.70
3348;DHT22;1687;49.540;8.574;2024-02-21T14:59:50;13.70;73.00
3348;DHT22;1687;49.540;8.574;2024-02-21T15:02:22;13.60;72.40
3348;DHT22;1687;49.540;8.574;2024-02-21T15:04:48;13.60;72.90
3348;DHT22;1687;49.540;8.574;2024-02-21T15:07:14;13.50;72.40
3348;DHT22;1687;49.540;8.574;2024-02-21T15:09:40;13.40;72.20
3348;DHT22;1687;49.540;8.574;2024-02-21T15:12:06;13.30;72.20
3348;DHT22;1687;49.540;8.574;2024-02-21T15:14:32;13.30;72.30
3348;DHT22;1687;49.540;8.574;2024-02-21T15:16:57;13.30;72.50
3348;DHT22;1687;49.540;8.574;2024-02-21T15:19:23;13.30;73.00
3348;DHT22;1687;49.540;8.574;2024-02-21T15:21:49;13.40;72.60
3348;DHT22;1687;49.540;8.574;2024-02-21T15:24:14;13.40;72.20
3348;DHT22;1687;49.540;8.574;2024-02-21T15:26:42;13.30;71.90
3348;DHT22;1687;49.540;8.574;2024-02-21T15:29:08;13.20;72.20
3348;DHT22;1687;49.540;8.574;2024-02-21T15:31:34;13.20;72.20
3348;DHT22;1687;49.540;8.574;2024-02-21T15:34:00;13.20;72.20
3348;DHT22;1687;49.540;8.574;2024-02-21T15:36:25;13.20;72.40
3348;DHT22;1687;49.540;8.574;2024-02-21T15:38:53;13.30;72.20
3348;DHT22;1687;49.540;8.574;2024-02-21T15:41:20;13.30;72.20
3348;DHT22;1687;49.540;8.574;2024-02-21T15:43:46;13.10;71.40
3348;DHT22;1687;49.540;8.574;2024-02-21T15:46:12;13.00;71.80
3348;DHT22;1687;49.540;8.574;2024-02-21T15:48:38;13.00;72.00
3348;DHT22;1687;49.540;8.574;2024-02-21T15:51:04;13.00;71.90
3348;DHT22;1687;49.540;8.574;2024-02-21T15:53:31;13.00;72.10
3348;DHT22;1687;49.540;8.574;2024-02-21T15:55:56;13.00;71.80
3348;DHT22;1687;49.540;8.574;2024-02-21T15:58:22;13.00;71.60
3348;DHT22;1687;49.540;8.574;2024-02-21T16:00:49;12.90;71.60
3348;DHT22;1687;49.540;8.574;2024-02-21T16:03:15;12.80;71.60
3348;DHT22;1687;49.540;8.574;2024-02-21T16:05:43;12.80;71.60
3348;DHT22;1687;49.540;8.574;2024-02-21T16:08:09;12.70;71.10
3348;DHT22;1687;49.540;8.574;2024-02-21T16:10:35;12.60;71.40
3348;DHT22;1687;49.540;8.574;2024-02-21T16:13:01;12.60;71.50
3348;DHT22;1687;49.540;8.574;2024-02-21T16:15:26;12.50;71.10
3348;DHT22;1687;49.540;8.574;2024-02-21T16:17:52;12.50;71.20